createdAt,value
2019-05-23T00:02:20.781Z,74.20
2019-05-23T00:05:00.856Z,74.00
2019-05-23T00:07:30.607Z,73.10
2019-05-23T00:10:03.266Z,73.50
2019-05-23T00:12:50.061Z,77.50
2019-05-23T00:15:25.624Z,78.00
2019-05-23T00:17:56.552Z,77.30
2019-05-23T00:20:25.630Z,74.70
2019-05-23T00:22:54.467Z,76.40
2019-05-23T00:25:24.694Z,74.50
2019-05-23T00:27:53.977Z,73.40
2019-05-23T00:30:32.232Z,74.20
2019-05-23T00:33:02.878Z,74.70
2019-05-23T00:35:33.721Z,73.80
2019-05-23T00:38:04.147Z,73.10
2019-05-23T00:40:33.602Z,73.00
2019-05-23T00:43:03.794Z,73.00
2019-05-23T00:45:32.814Z,72.60
2019-05-23T00:48:03.792Z,73.30
2019-05-23T00:50:33.319Z,72.90
2019-05-23T00:53:02.804Z,73.00
2019-05-23T00:55:32.539Z,73.60
2019-05-23T00:58:02.568Z,75.10
2019-05-23T01:00:32.364Z,75.00
2019-05-23T01:03:01.955Z,73.70
2019-05-23T01:05:31.102Z,74.40
2019-05-23T01:08:01.607Z,74.30
2019-05-23T01:10:30.726Z,74.70
2019-05-23T01:13:00.368Z,75.80
2019-05-23T01:15:29.600Z,76.50
2019-05-23T01:17:58.889Z,77.50
2019-05-23T01:20:51.421Z,79.00
2019-05-23T01:23:20.218Z,79.60
2019-05-23T01:25:49.715Z,78.00
2019-05-23T01:28:19.031Z,79.30
2019-05-23T01:30:49.505Z,79.00
2019-05-23T01:33:19.112Z,77.80
2019-05-23T01:35:49.073Z,77.40
2019-05-23T01:38:18.586Z,79.40
2019-05-23T01:40:47.495Z,79.50
2019-05-23T01:43:17.777Z,80.20
2019-05-23T01:45:46.804Z,80.10
2019-05-23T01:48:16.206Z,79.90
2019-05-23T01:50:46.285Z,79.50
2019-05-23T01:53:16.029Z,79.30
2019-05-23T01:55:44.807Z,81.20
2019-05-23T01:58:14.653Z,82.90
2019-05-23T02:00:44.100Z,83.70
2019-05-23T02:03:14.982Z,82.40
2019-05-23T02:05:44.289Z,82.30
2019-05-23T02:08:14.738Z,79.70
2019-05-23T02:10:44.047Z,77.20
2019-05-23T02:13:13.936Z,77.10
2019-05-23T02:15:44.238Z,77.40
2019-05-23T02:18:15.377Z,76.20
2019-05-23T02:20:46.125Z,76.00
2019-05-23T02:23:14.941Z,78.50
2019-05-23T02:25:44.177Z,79.20
2019-05-23T02:28:13.783Z,80.30
2019-05-23T02:30:43.198Z,80.40
2019-05-23T02:33:12.249Z,81.60
2019-05-23T02:35:41.119Z,80.80
2019-05-23T02:38:23.997Z,80.10
2019-05-23T02:40:59.660Z,79.90
2019-05-23T02:43:29.123Z,79.40
2019-05-23T02:46:02.419Z,79.90
2019-05-23T02:48:38.987Z,81.80
2019-05-23T02:51:13.060Z,85.20
2019-05-23T02:53:43.884Z,85.10
2019-05-23T02:56:15.707Z,84.40
2019-05-23T02:59:21.810Z,84.40
2019-05-23T03:02:18.659Z,84.00
2019-05-23T03:04:47.956Z,84.40
2019-05-23T03:07:20.313Z,83.70
2019-05-23T03:09:50.860Z,83.60
2019-05-23T03:12:19.966Z,81.20
2019-05-23T03:14:49.878Z,79.70
2019-05-23T03:17:21.001Z,79.30
2019-05-23T03:19:56.623Z,78.50
2019-05-23T03:22:31.706Z,78.50
2019-05-23T03:25:03.270Z,79.50
2019-05-23T03:27:35.752Z,78.30
2019-05-23T03:30:08.360Z,78.30
2019-05-23T03:32:49.012Z,78.20
2019-05-23T03:35:31.848Z,78.10
2019-05-23T03:38:01.769Z,77.90
2019-05-23T03:40:32.124Z,77.60
2019-05-23T03:43:01.175Z,77.30
2019-05-23T03:45:32.849Z,76.50
2019-05-23T03:48:03.462Z,78.10
2019-05-23T03:50:32.867Z,77.20
2019-05-23T03:53:02.045Z,78.30
2019-05-23T03:55:32.914Z,77.60
2019-05-23T03:58:02.986Z,78.00
2019-05-23T04:00:36.893Z,78.50
2019-05-23T04:03:07.607Z,78.10
2019-05-23T04:05:37.591Z,76.50
2019-05-23T04:08:07.602Z,76.90
2019-05-23T04:10:37.378Z,76.20
2019-05-23T04:13:06.874Z,75.30
2019-05-23T04:15:36.408Z,75.30
2019-05-23T04:18:05.467Z,75.40
2019-05-23T04:20:34.229Z,75.50
2019-05-23T04:23:04.295Z,76.10
2019-05-23T04:25:34.472Z,76.00
2019-05-23T04:28:03.679Z,75.60
2019-05-23T04:30:32.662Z,76.20
2019-05-23T04:33:01.686Z,74.30
2019-05-23T04:35:30.653Z,74.50
2019-05-23T04:37:59.816Z,73.60
2019-05-23T04:40:28.850Z,73.10
2019-05-23T04:42:57.795Z,72.70
2019-05-23T04:45:28.280Z,72.40
2019-05-23T04:47:57.779Z,70.90
2019-05-23T04:50:27.833Z,71.50
2019-05-23T04:52:57.089Z,71.10
2019-05-23T04:55:26.680Z,70.40
2019-05-23T04:57:55.680Z,70.20
2019-05-23T05:00:24.888Z,70.30
2019-05-23T05:02:54.457Z,69.70
2019-05-23T05:05:24.835Z,69.10
2019-05-23T05:07:53.827Z,69.00
2019-05-23T05:10:25.843Z,68.50
2019-05-23T05:12:54.942Z,68.10
2019-05-23T05:15:24.091Z,67.20
2019-05-23T05:17:52.895Z,67.30
2019-05-23T05:20:21.897Z,67.10
2019-05-23T05:22:51.037Z,67.20
2019-05-23T05:25:21.044Z,66.60
2019-05-23T05:27:50.784Z,66.10
2019-05-23T05:30:23.356Z,65.60
2019-05-23T05:32:52.359Z,65.40
2019-05-23T05:35:21.741Z,64.80
2019-05-23T05:37:50.704Z,65.10
2019-05-23T05:40:19.936Z,64.70
2019-05-23T05:42:48.762Z,65.10
2019-05-23T05:45:18.425Z,65.10
2019-05-23T05:47:47.258Z,64.70
2019-05-23T05:50:17.419Z,64.20
2019-05-23T05:52:46.317Z,64.10
2019-05-23T05:55:16.031Z,62.80
2019-05-23T05:57:44.813Z,62.40
2019-05-23T06:00:33.653Z,62.50
2019-05-23T06:03:05.539Z,62.00
2019-05-23T06:05:39.520Z,61.70
2019-05-23T06:08:10.401Z,62.40
2019-05-23T06:10:39.699Z,62.40
2019-05-23T06:13:08.459Z,61.50
2019-05-23T06:15:37.613Z,61.80
2019-05-23T06:18:07.047Z,61.80
2019-05-23T06:20:40.790Z,62.00
2019-05-23T06:23:10.920Z,61.40
2019-05-23T06:25:40.453Z,61.60
2019-05-23T06:28:09.822Z,62.40
2019-05-23T06:30:39.461Z,61.40
2019-05-23T06:33:22.472Z,61.80
2019-05-23T06:35:39.288Z,62.50
2019-05-23T06:38:08.640Z,61.90
2019-05-23T06:40:37.701Z,61.70
2019-05-23T06:43:06.828Z,62.00
2019-05-23T06:45:36.485Z,61.60
2019-05-23T06:48:05.637Z,61.20
2019-05-23T06:50:34.573Z,60.00
2019-05-23T06:53:05.108Z,59.80
2019-05-23T06:55:34.704Z,59.20
2019-05-23T06:58:04.484Z,59.70
2019-05-23T07:00:33.740Z,60.20
2019-05-23T07:03:02.740Z,59.40
2019-05-23T07:05:35.464Z,58.60
2019-05-23T07:08:04.918Z,57.80
2019-05-23T07:10:34.207Z,57.40
2019-05-23T07:13:03.117Z,56.40
2019-05-23T07:15:32.018Z,56.50
2019-05-23T07:18:02.223Z,56.40
2019-05-23T07:20:31.486Z,55.40
2019-05-23T07:23:01.037Z,54.70
2019-05-23T07:25:30.817Z,54.60
2019-05-23T07:28:00.324Z,54.60
2019-05-23T07:30:29.168Z,55.10
2019-05-23T07:32:58.093Z,54.30
2019-05-23T07:35:26.998Z,53.00
2019-05-23T07:37:55.843Z,52.80
2019-05-23T07:40:26.806Z,52.20
2019-05-23T07:42:55.892Z,52.70
2019-05-23T07:45:28.934Z,52.60
2019-05-23T07:47:58.812Z,52.50
2019-05-23T07:50:27.767Z,54.10
2019-05-23T07:52:58.250Z,53.30
2019-05-23T07:55:36.123Z,54.00
2019-05-23T07:58:05.798Z,53.90
2019-05-23T08:00:37.465Z,54.20
2019-05-23T08:03:08.964Z,54.70
2019-05-23T08:05:37.986Z,55.30
2019-05-23T08:08:07.631Z,54.50
2019-05-23T08:10:36.813Z,54.70
2019-05-23T08:13:05.849Z,55.40
2019-05-23T08:15:36.003Z,53.40
2019-05-23T08:18:06.335Z,53.10
2019-05-23T08:20:35.141Z,52.30
2019-05-23T08:23:03.973Z,52.70
2019-05-23T08:25:33.183Z,53.30
2019-05-23T08:28:02.595Z,53.70
2019-05-23T08:30:31.533Z,53.20
2019-05-23T08:33:01.057Z,53.10
2019-05-23T08:35:30.337Z,54.20
2019-05-23T08:38:00.516Z,53.50
2019-05-23T08:40:30.919Z,54.50
2019-05-23T08:43:00.098Z,53.70
2019-05-23T08:45:29.017Z,53.20
2019-05-23T08:47:58.040Z,52.90
2019-05-23T08:50:26.949Z,52.30
2019-05-23T08:52:56.868Z,52.20
2019-05-23T08:55:27.756Z,51.80
2019-05-23T08:57:57.940Z,52.50
2019-05-23T09:00:28.735Z,52.90
2019-05-23T09:02:59.282Z,53.00
2019-05-23T09:05:30.387Z,52.40
2019-05-23T09:07:59.976Z,53.40
2019-05-23T09:10:29.655Z,52.50
2019-05-23T09:12:59.411Z,52.00
2019-05-23T09:15:28.553Z,51.90
2019-05-23T09:17:57.911Z,50.70
2019-05-23T09:20:27.327Z,50.00
2019-05-23T09:22:56.538Z,50.40
2019-05-23T09:25:25.822Z,50.00
2019-05-23T09:27:56.007Z,49.20
2019-05-23T09:30:28.284Z,47.90
2019-05-23T09:32:57.437Z,48.80
2019-05-23T09:35:27.019Z,46.40
2019-05-23T09:37:56.418Z,46.00
2019-05-23T09:40:25.786Z,44.30
2019-05-23T09:42:54.738Z,46.10
2019-05-23T09:45:23.955Z,46.20
2019-05-23T09:47:52.886Z,44.80
2019-05-23T09:50:24.429Z,44.60
2019-05-23T09:52:53.345Z,42.60
2019-05-23T09:55:22.697Z,43.10
2019-05-23T09:57:51.559Z,44.50
2019-05-23T10:00:21.474Z,43.30
2019-05-23T10:02:50.361Z,44.40
2019-05-23T10:05:19.370Z,43.80
2019-05-23T10:07:48.312Z,43.80
2019-05-23T10:10:19.300Z,43.60
2019-05-23T10:12:49.662Z,41.80
2019-05-23T10:15:47.212Z,39.20
2019-05-23T10:18:19.752Z,41.60
2019-05-23T10:20:48.917Z,40.90
2019-05-23T10:23:17.851Z,43.50
2019-05-23T10:25:49.934Z,41.40
2019-05-23T10:28:19.171Z,40.20
2019-05-23T10:30:48.265Z,41.90
2019-05-23T10:33:17.516Z,43.10
2019-05-23T10:35:59.720Z,41.40
2019-05-23T10:38:17.393Z,42.00
2019-05-23T10:40:46.341Z,40.20
2019-05-23T10:43:15.307Z,42.30
2019-05-23T10:45:44.244Z,42.50
2019-05-23T10:48:13.887Z,42.70
2019-05-23T10:50:45.121Z,40.60
2019-05-23T10:53:14.325Z,39.90
2019-05-23T10:55:44.346Z,41.40
2019-05-23T10:58:14.971Z,40.40
2019-05-23T11:00:44.950Z,40.70
2019-05-23T11:03:15.194Z,42.20
2019-05-23T11:05:44.294Z,41.60
2019-05-23T11:08:14.735Z,42.20
2019-05-23T11:10:44.308Z,42.30
2019-05-23T11:13:13.247Z,44.00
2019-05-23T11:15:42.177Z,43.30
2019-05-23T11:18:11.971Z,43.60
2019-05-23T11:20:41.418Z,42.10
2019-05-23T11:23:12.663Z,41.00
2019-05-23T11:25:41.633Z,40.50
2019-05-23T11:28:10.649Z,41.30
2019-05-23T11:30:45.597Z,40.70
2019-05-23T11:33:14.828Z,43.20
2019-05-23T11:35:44.754Z,41.30
2019-05-23T11:38:14.011Z,40.20
2019-05-23T11:40:45.235Z,40.30
2019-05-23T11:43:13.992Z,38.50
2019-05-23T11:46:08.321Z,40.00
2019-05-23T11:48:38.331Z,39.50
2019-05-23T11:51:07.445Z,41.40
2019-05-23T11:53:36.495Z,39.60
2019-05-23T11:56:07.083Z,39.70
2019-05-23T11:58:35.971Z,39.60
2019-05-23T12:01:31.512Z,41.10
2019-05-23T12:04:13.827Z,40.30
2019-05-23T12:06:55.575Z,40.70
2019-05-23T12:09:21.439Z,41.30
2019-05-23T12:11:50.364Z,40.80
2019-05-23T12:14:19.509Z,40.10
2019-05-23T12:16:49.656Z,39.90
2019-05-23T12:19:18.928Z,39.20
2019-05-23T12:21:47.947Z,39.70
2019-05-23T12:24:16.915Z,40.10
2019-05-23T12:26:45.784Z,42.10
2019-05-23T12:29:15.181Z,40.50
2019-05-23T12:31:48.892Z,37.40
2019-05-23T12:34:14.835Z,37.90
2019-05-23T12:36:43.829Z,35.80
2019-05-23T12:39:12.995Z,36.90
2019-05-23T12:41:42.357Z,36.40
2019-05-23T12:44:11.271Z,38.10
2019-05-23T12:46:40.194Z,38.40
2019-05-23T12:49:21.974Z,38.30
2019-05-23T12:51:51.599Z,36.60
2019-05-23T12:54:20.526Z,40.00
2019-05-23T12:56:49.773Z,39.80
2019-05-23T12:59:18.645Z,40.20
2019-05-23T13:01:50.085Z,39.40
2019-05-23T13:04:19.926Z,40.20
2019-05-23T13:06:48.796Z,37.50
2019-05-23T13:09:17.994Z,38.70
2019-05-23T13:11:47.044Z,41.50
2019-05-23T13:14:16.500Z,42.50
2019-05-23T13:16:45.534Z,41.50
2019-05-23T13:19:15.760Z,41.60
2019-05-23T13:21:45.055Z,41.10
2019-05-23T13:24:14.035Z,42.80
2019-05-23T13:26:42.929Z,43.40
2019-05-23T13:29:11.864Z,43.70
2019-05-23T13:31:41.080Z,44.30
2019-05-23T13:34:09.880Z,44.90
2019-05-23T13:36:38.881Z,46.00
2019-05-23T13:39:10.331Z,45.80
2019-05-23T13:41:39.307Z,48.80
2019-05-23T13:44:08.515Z,45.10
2019-05-23T13:46:38.321Z,47.10
2019-05-23T13:49:07.513Z,45.50
2019-05-23T13:51:36.418Z,45.60
2019-05-23T13:54:05.487Z,45.40
2019-05-23T13:56:34.341Z,45.00
2019-05-23T13:59:03.573Z,44.40
2019-05-23T14:01:34.731Z,43.60
2019-05-23T14:04:03.682Z,44.40
2019-05-23T14:06:32.464Z,46.00
2019-05-23T14:09:01.488Z,44.50
2019-05-23T14:11:30.332Z,44.50
2019-05-23T14:14:01.864Z,43.00
2019-05-23T14:16:32.023Z,43.60
2019-05-23T14:19:01.008Z,43.20
2019-05-23T14:21:33.628Z,43.00
2019-05-23T14:24:02.585Z,45.60
2019-05-23T14:26:35.499Z,44.10
2019-05-23T14:29:04.504Z,45.50
2019-05-23T14:31:39.495Z,45.00
2019-05-23T14:34:17.209Z,44.20
2019-05-23T14:36:58.720Z,44.50
2019-05-23T14:39:39.819Z,45.50
2019-05-23T14:42:24.830Z,45.40
2019-05-23T14:44:53.663Z,44.80
2019-05-23T14:47:41.580Z,46.80
2019-05-23T14:50:35.735Z,46.20
2019-05-23T14:53:05.371Z,43.70
2019-05-23T14:55:34.262Z,44.70
2019-05-23T14:58:04.291Z,43.10
2019-05-23T15:00:34.518Z,44.20
2019-05-23T15:03:03.800Z,42.30
2019-05-23T15:05:32.769Z,42.20
2019-05-23T15:08:01.659Z,43.20
2019-05-23T15:10:30.907Z,42.80
2019-05-23T15:13:00.696Z,40.20
2019-05-23T15:15:29.706Z,42.90
2019-05-23T15:17:58.544Z,42.10
2019-05-23T15:20:27.491Z,41.30
2019-05-23T15:22:59.735Z,42.30
2019-05-23T15:25:26.903Z,40.60
2019-05-23T15:27:55.707Z,41.10
2019-05-23T15:30:24.901Z,40.00
2019-05-23T15:32:53.823Z,39.40
2019-05-23T15:35:22.604Z,38.90
2019-05-23T15:37:51.411Z,39.00
2019-05-23T15:40:20.876Z,37.90
2019-05-23T15:42:49.795Z,38.60
2019-05-23T15:45:18.639Z,39.00
2019-05-23T15:47:47.721Z,38.30
2019-05-23T15:50:23.761Z,37.60
2019-05-23T15:53:03.438Z,38.60
2019-05-23T15:55:52.797Z,39.90
2019-05-23T15:58:28.091Z,39.10
2019-05-23T16:01:07.306Z,37.50
2019-05-23T16:03:43.453Z,37.70
2019-05-23T16:06:14.675Z,38.80
2019-05-23T16:08:43.630Z,36.80
2019-05-23T16:11:16.667Z,36.90
2019-05-23T16:13:43.859Z,35.60
2019-05-23T16:16:12.622Z,36.00
2019-05-23T16:18:41.501Z,36.20
2019-05-23T16:21:11.277Z,35.50
2019-05-23T16:23:40.293Z,35.50
2019-05-23T16:26:11.560Z,34.70
2019-05-23T16:28:40.088Z,34.00
2019-05-23T16:31:09.126Z,36.20
2019-05-23T16:33:37.917Z,35.60
2019-05-23T16:36:06.858Z,34.90
2019-05-23T16:38:35.683Z,35.50
2019-05-23T16:41:04.943Z,36.50
2019-05-23T16:43:34.195Z,37.20
2019-05-23T16:46:03.121Z,37.20
2019-05-23T16:48:32.365Z,35.10
2019-05-23T16:51:01.181Z,36.40
2019-05-23T16:53:35.555Z,38.10
2019-05-23T16:56:09.893Z,37.70
2019-05-23T16:59:02.428Z,35.70
2019-05-23T17:01:55.561Z,35.40
2019-05-23T17:04:20.297Z,36.10
2019-05-23T17:06:58.351Z,36.10
2019-05-23T17:09:40.042Z,36.60
2019-05-23T17:12:39.929Z,36.10
2019-05-23T17:15:27.338Z,36.30
2019-05-23T17:18:14.203Z,35.90
2019-05-23T17:21:02.309Z,37.00
2019-05-23T17:23:59.155Z,37.60
2019-05-23T17:26:52.823Z,36.40
2019-05-23T17:29:30.491Z,37.80
2019-05-23T17:31:59.473Z,36.10
2019-05-23T17:34:28.516Z,36.20
2019-05-23T17:36:57.341Z,35.90
2019-05-23T17:39:28.401Z,37.10
2019-05-23T17:41:57.809Z,37.40
2019-05-23T17:44:27.102Z,36.80
2019-05-23T17:46:58.463Z,37.00
2019-05-23T17:49:27.477Z,36.60
2019-05-23T17:51:56.629Z,37.00
2019-05-23T17:54:27.704Z,36.70
2019-05-23T17:56:58.778Z,36.10
2019-05-23T17:59:28.012Z,35.40
2019-05-23T18:02:03.926Z,36.00
2019-05-23T18:04:36.752Z,36.00
2019-05-23T18:07:06.590Z,37.10
2019-05-23T18:09:35.812Z,39.30
2019-05-23T18:12:07.087Z,40.10
2019-05-23T18:14:37.948Z,41.20
2019-05-23T18:17:07.337Z,41.70
2019-05-23T18:19:36.748Z,40.20
2019-05-23T18:22:08.035Z,40.70
2019-05-23T18:24:37.693Z,41.50
2019-05-23T18:27:08.505Z,40.00
2019-05-23T18:29:37.836Z,39.90
2019-05-23T18:32:11.958Z,40.90
2019-05-23T18:34:40.999Z,40.90
2019-05-23T18:37:10.294Z,41.20
2019-05-23T18:39:41.451Z,41.60
2019-05-23T18:42:10.433Z,40.40
2019-05-23T18:44:39.738Z,42.50
2019-05-23T18:47:13.957Z,41.40
2019-05-23T18:49:43.586Z,41.00
2019-05-23T18:52:13.223Z,40.90
2019-05-23T18:54:42.380Z,42.30
2019-05-23T18:57:12.109Z,42.20
2019-05-23T18:59:41.243Z,41.90
2019-05-23T19:02:10.832Z,42.30
2019-05-23T19:04:40.309Z,44.00
2019-05-23T19:07:17.964Z,42.40
2019-05-23T19:23:02.135Z,44.90
2019-05-23T19:25:40.642Z,44.90
2019-05-23T19:27:56.704Z,45.60
2019-05-23T19:30:29.383Z,46.90
2019-05-23T19:32:58.924Z,46.00
2019-05-23T19:35:28.184Z,46.70
2019-05-23T19:38:01.350Z,47.30
2019-05-23T19:40:30.704Z,48.70
2019-05-23T19:43:02.475Z,48.30
2019-05-23T19:45:31.689Z,48.90
2019-05-23T19:48:01.293Z,48.70
2019-05-23T19:50:30.496Z,50.00
2019-05-23T19:53:00.048Z,49.30
2019-05-23T19:55:30.230Z,49.30
2019-05-23T19:58:00.853Z,48.70
2019-05-23T20:00:36.178Z,48.60
2019-05-23T20:03:04.344Z,49.20
2019-05-23T20:05:35.957Z,50.60
2019-05-23T20:08:05.472Z,52.30
2019-05-23T20:10:35.277Z,54.20
2019-05-23T20:13:04.656Z,53.50
2019-05-23T20:15:34.384Z,55.00
2019-05-23T20:18:03.435Z,52.00
2019-05-23T20:20:34.246Z,54.40
2019-05-23T20:23:03.482Z,56.50
2019-05-23T20:25:33.707Z,54.80
2019-05-23T20:28:02.867Z,55.50
2019-05-23T20:31:04.318Z,57.70
2019-05-23T20:33:33.328Z,59.00
2019-05-23T20:36:04.416Z,61.40
2019-05-23T20:38:33.549Z,60.70
2019-05-23T20:41:02.552Z,62.40
2019-05-23T20:43:31.493Z,61.90
2019-05-23T20:46:00.504Z,62.90
2019-05-23T20:48:30.517Z,60.70
2019-05-23T20:50:59.585Z,61.00
2019-05-23T20:53:28.488Z,58.70
2019-05-23T20:55:57.727Z,57.80
2019-05-23T20:58:26.723Z,56.70
2019-05-23T21:00:59.900Z,56.60
2019-05-23T21:03:29.905Z,56.10
2019-05-23T21:05:58.956Z,56.30
2019-05-23T21:08:28.561Z,58.30
2019-05-23T21:10:57.521Z,57.80
2019-05-23T21:13:26.510Z,60.00
2019-05-23T21:15:55.660Z,60.50
2019-05-23T21:18:24.660Z,60.40
2019-05-23T21:20:53.684Z,64.70
2019-05-23T21:23:24.081Z,65.00
2019-05-23T21:26:00.332Z,65.40
2019-05-23T21:28:33.028Z,62.30
2019-05-23T21:31:02.179Z,59.60
2019-05-23T21:33:32.717Z,59.20
2019-05-23T21:36:01.632Z,60.10
2019-05-23T21:38:30.813Z,61.80
2019-05-23T21:41:03.245Z,61.90
2019-05-23T21:43:30.473Z,61.10
2019-05-23T21:45:59.703Z,63.90
2019-05-23T21:48:28.626Z,66.40
2019-05-23T21:50:57.626Z,65.60
2019-05-23T21:53:26.483Z,65.30
2019-05-23T21:55:55.464Z,64.60
2019-05-23T21:58:24.774Z,63.00
2019-05-23T22:01:29.819Z,64.70
2019-05-23T22:04:18.273Z,64.70
2019-05-23T22:06:55.261Z,68.00
2019-05-23T22:09:22.530Z,68.50
2019-05-23T22:11:52.320Z,69.30
2019-05-23T22:14:21.917Z,71.80
2019-05-23T22:16:51.304Z,70.80
2019-05-23T22:19:21.597Z,71.10
2019-05-23T22:21:50.605Z,70.80
2019-05-23T22:24:20.176Z,70.70
2019-05-23T22:26:49.395Z,73.70
2019-05-23T22:29:18.565Z,74.00
2019-05-23T22:31:47.715Z,71.90
2019-05-23T22:34:51.053Z,70.30
2019-05-23T22:37:27.844Z,70.20
2019-05-23T22:39:56.888Z,70.20
2019-05-23T22:42:28.475Z,68.80
2019-05-23T22:44:57.871Z,68.10
2019-05-23T22:47:27.527Z,65.30
2019-05-23T22:49:56.496Z,65.80
2019-05-23T22:52:25.560Z,67.30
2019-05-23T22:54:54.436Z,64.40
2019-05-23T22:57:23.332Z,65.10
2019-05-23T22:59:52.183Z,64.20
2019-05-23T23:02:21.112Z,63.20
2019-05-23T23:04:49.990Z,64.00
2019-05-23T23:07:18.919Z,65.30
2019-05-23T23:09:47.888Z,66.00
2019-05-23T23:12:16.912Z,66.00
2019-05-23T23:14:47.568Z,66.20
2019-05-23T23:17:17.520Z,65.50
2019-05-23T23:19:46.312Z,67.20
2019-05-23T23:22:15.186Z,68.50
2019-05-23T23:24:44.127Z,70.00
2019-05-23T23:27:13.029Z,71.00
2019-05-23T23:29:41.897Z,68.60
2019-05-23T23:32:11.222Z,68.90
2019-05-23T23:34:40.153Z,67.30
2019-05-23T23:37:09.118Z,65.20
2019-05-23T23:39:38.075Z,65.00
2019-05-23T23:42:08.323Z,67.40
2019-05-23T23:44:36.322Z,66.50
2019-05-23T23:47:23.768Z,67.50
2019-05-23T23:50:10.725Z,66.30
2019-05-23T23:52:57.375Z,65.70
2019-05-23T23:55:44.221Z,66.00
2019-05-23T23:58:12.408Z,64.60
